Time,TemperatureF,DewpointF,PressureIn,WindDirection,WindDirectionDegrees,WindSpeedMPH,WindSpeedGustMPH,Humidity,HourlyPrecipIn,Conditions,Clouds,dailyrainin,SoftwareType,DateUTC
2013-03-05 00:13:00,27.9,21.0,30.18,East,82,2.0,5.0,75,0.00,,,0.00,weatherlink.com 1.10,2013-03-05 08:13:00,
2013-03-05 00:28:00,27.4,21.0,30.18,ENE,65,2.0,5.0,76,0.00,,,0.00,weatherlink.com 1.10,2013-03-05 08:28:00,
2013-03-05 00:43:00,27.4,21.0,30.18,ENE,76,3.0,5.0,76,0.00,,,0.00,weatherlink.com 1.10,2013-03-05 08:43:00,
2013-03-05 00:58:00,26.8,21.0,30.18,ENE,57,4.0,5.0,77,0.00,,,0.00,weatherlink.com 1.10,2013-03-05 08:58:00,
2013-03-05 01:13:00,26.8,21.0,30.18,East,98,3.0,5.0,77,0.00,,,0.00,weatherlink.com 1.10,2013-03-05 09:13:00,
2013-03-05 01:28:00,26.3,20.0,30.18,ENE,58,3.0,5.0,78,0.00,,,0.00,weatherlink.com 1.10,2013-03-05 09:28:00,
2013-03-05 01:43:00,26.0,20.0,30.18,East,80,3.0,6.0,79,0.00,,,0.00,weatherlink.com 1.10,2013-03-05 09:43:00,
2013-03-05 01:58:00,25.7,21.0,30.18,East,100,2.0,4.0,81,0.00,,,0.00,weatherlink.com 1.10,2013-03-05 09:58:00,
2013-03-05 02:13:00,26.6,21.0,30.17,ENE,57,3.0,5.0,79,0.00,,,0.00,weatherlink.com 1.10,2013-03-05 10:13:00,
2013-03-05 02:28:00,26.7,21.0,30.16,East,80,6.0,8.0,78,0.00,,,0.00,weatherlink.com 1.10,2013-03-05 10:28:00,
2013-03-05 02:43:00,28.1,21.0,30.14,NNE,33,4.0,8.0,75,0.00,,,0.00,weatherlink.com 1.10,2013-03-05 10:43:00,
2013-03-05 02:58:00,28.1,21.0,30.14,ENE,72,3.0,10.0,75,0.00,,,0.00,weatherlink.com 1.10,2013-03-05 10:58:00,
2013-03-05 03:13:00,27.4,21.0,30.14,East,90,3.0,8.0,77,0.00,,,0.00,weatherlink.com 1.10,2013-03-05 11:13:00,
2013-03-05 03:28:00,27.4,21.0,30.14,East,95,4.0,9.0,77,0.00,,,0.00,weatherlink.com 1.10,2013-03-05 11:28:00,
2013-03-05 03:44:00,27.5,21.0,30.13,NE,52,2.0,9.0,76,0.00,,,0.00,weatherlink.com 1.10,2013-03-05 11:44:00,
2013-03-05 03:59:00,27.3,21.0,30.13,ESE,104,6.0,9.0,76,0.00,,,0.00,weatherlink.com 1.10,2013-03-05 11:59:00,
2013-03-05 04:14:00,27.2,21.0,30.13,ENE,63,3.0,12.0,76,0.00,,,0.00,weatherlink.com 1.10,2013-03-05 12:14:00,
2013-03-05 04:29:00,27.2,21.0,30.12,ENE,64,3.0,10.0,76,0.00,,,0.00,weatherlink.com 1.10,2013-03-05 12:29:00,
2013-03-05 04:44:00,26.7,20.0,30.12,East,79,7.0,10.0,77,0.00,,,0.00,weatherlink.com 1.10,2013-03-05 12:44:00,
2013-03-05 04:59:00,27.0,20.0,30.12,ESE,103,3.0,8.0,76,0.00,,,0.00,weatherlink.com 1.10,2013-03-05 12:59:00,
2013-03-05 05:14:00,27.3,20.0,30.12,NNE,33,6.0,10.0,75,0.00,,,0.00,weatherlink.com 1.10,2013-03-05 13:14:00,
2013-03-05 05:29:00,27.2,20.0,30.11,ENE,57,9.0,11.0,75,0.00,,,0.00,weatherlink.com 1.10,2013-03-05 13:29:00,
2013-03-05 05:44:00,26.7,20.0,30.11,NE,56,5.0,8.0,77,0.00,,,0.00,weatherlink.com 1.10,2013-03-05 13:44:00,
2013-03-05 05:59:00,26.8,20.0,30.11,NE,36,9.0,12.0,76,0.00,,,0.00,weatherlink.com 1.10,2013-03-05 13:59:00,
2013-03-05 06:14:00,26.7,20.0,30.11,NE,50,6.0,10.0,76,0.00,,,0.00,weatherlink.com 1.10,2013-03-05 14:14:00,
2013-03-05 06:29:00,26.8,20.0,30.10,ENE,60,7.0,9.0,76,0.00,,,0.00,weatherlink.com 1.10,2013-03-05 14:29:00,
2013-03-05 06:44:00,27.1,20.0,30.10,East,91,8.0,13.0,75,0.00,,,0.00,weatherlink.com 1.10,2013-03-05 14:44:00,
2013-03-05 06:59:00,27.4,20.0,30.10,ENE,62,4.0,12.0,74,0.00,,,0.00,weatherlink.com 1.10,2013-03-05 14:59:00,
2013-03-05 07:14:00,28.1,20.0,30.09,NNE,31,5.0,10.0,72,0.00,,,0.00,weatherlink.com 1.10,2013-03-05 15:14:00,
2013-03-05 07:29:00,28.3,20.0,30.09,ENE,70,15.0,15.0,72,0.00,,,0.00,weatherlink.com 1.10,2013-03-05 15:29:00,
2013-03-05 07:44:00,28.4,21.0,30.09,NE,41,3.0,13.0,73,0.00,,,0.00,weatherlink.com 1.10,2013-03-05 15:44:00,
2013-03-05 07:59:00,28.5,21.0,30.08,NE,42,13.0,15.0,73,0.00,,,0.00,weatherlink.com 1.10,2013-03-05 15:59:00,
2013-03-05 08:14:00,28.8,21.0,30.08,NNE,25,8.0,14.0,72,0.00,,,0.00,weatherlink.com 1.10,2013-03-05 16:14:00,
2013-03-05 08:29:00,29.1,21.0,30.08,NE,55,8.0,12.0,72,0.00,,,0.00,weatherlink.com 1.10,2013-03-05 16:29:00,
2013-03-05 08:44:00,29.3,21.0,30.07,East,79,8.0,12.0,71,0.00,,,0.00,weatherlink.com 1.10,2013-03-05 16:44:00,
2013-03-05 08:59:00,29.0,21.0,30.07,East,84,9.0,12.0,73,0.00,,,0.00,weatherlink.com 1.10,2013-03-05 16:59:00,
2013-03-05 09:14:00,29.6,22.0,30.06,NE,42,7.0,10.0,72,0.00,,,0.00,weatherlink.com 1.10,2013-03-05 17:14:00,
2013-03-05 09:29:00,30.8,22.0,30.06,ENE,66,8.0,11.0,70,0.00,,,0.00,weatherlink.com 1.10,2013-03-05 17:29:00,
2013-03-05 09:44:00,31.3,21.0,30.05,NE,52,9.0,13.0,67,0.00,,,0.00,weatherlink.com 1.10,2013-03-05 17:44:00,
2013-03-05 09:59:00,32.3,22.0,30.04,NNE,30,4.0,10.0,65,0.00,,,0.00,weatherlink.com 1.10,2013-03-05 17:59:00,
2013-03-05 10:15:00,33.6,22.0,30.03,East,85,3.0,10.0,63,0.00,,,0.00,weatherlink.com 1.10,2013-03-05 18:15:00,
2013-03-05 10:30:00,34.4,23.0,30.03,ENE,76,2.0,8.0,64,0.00,,,0.00,weatherlink.com 1.10,2013-03-05 18:30:00,
2013-03-05 10:45:00,34.5,23.0,30.02,ENE,62,9.0,12.0,64,0.00,,,0.00,weatherlink.com 1.10,2013-03-05 18:45:00,
2013-03-05 11:00:00,35.3,24.0,30.01,NE,50,2.0,9.0,63,0.00,,,0.00,weatherlink.com 1.10,2013-03-05 19:00:00,
2013-03-05 11:15:00,36.5,24.0,30.01,NE,53,1.0,8.0,61,0.00,,,0.00,weatherlink.com 1.10,2013-03-05 19:15:00,
2013-03-05 11:30:00,37.5,24.0,30.01,ENE,67,2.0,9.0,58,0.00,,,0.00,weatherlink.com 1.10,2013-03-05 19:30:00,
2013-03-05 11:45:00,38.5,24.0,30.00,ENE,57,5.0,9.0,57,0.00,,,0.00,weatherlink.com 1.10,2013-03-05 19:45:00,
2013-03-05 12:00:00,38.9,25.0,29.99,SE,126,4.0,7.0,57,0.00,,,0.00,weatherlink.com 1.10,2013-03-05 20:00:00,
2013-03-05 12:15:00,39.5,25.0,29.99,NNE,24,0.0,7.0,57,0.00,,,0.00,weatherlink.com 1.10,2013-03-05 20:15:00,
2013-03-05 12:30:00,38.6,25.0,29.98,NNE,32,8.0,8.0,59,0.00,,,0.00,weatherlink.com 1.10,2013-03-05 20:30:00,
2013-03-05 12:45:00,38.3,25.0,29.97,East,98,4.0,9.0,59,0.00,,,0.00,weatherlink.com 1.10,2013-03-05 20:45:00,
2013-03-05 13:00:00,38.5,25.0,29.97,NE,44,5.0,8.0,59,0.00,,,0.00,weatherlink.com 1.10,2013-03-05 21:00:00,
2013-03-05 13:15:00,38.5,26.0,29.97,NE,43,2.0,6.0,60,0.00,,,0.00,weatherlink.com 1.10,2013-03-05 21:15:00,
2013-03-05 13:30:00,38.1,26.0,29.95,NNE,31,2.0,6.0,63,0.00,,,0.00,weatherlink.com 1.10,2013-03-05 21:30:00,
2013-03-05 13:45:00,38.9,27.0,29.95,East,97,3.0,6.0,62,0.00,,,0.00,weatherlink.com 1.10,2013-03-05 21:45:00,
2013-03-05 14:00:00,39.3,27.0,29.95,NE,46,6.0,6.0,61,0.00,,,0.00,weatherlink.com 1.10,2013-03-05 22:00:00,
2013-03-05 14:15:00,39.3,27.0,29.94,ENE,65,3.0,8.0,61,0.00,,,0.00,weatherlink.com 1.10,2013-03-05 22:15:00,
2013-03-05 14:30:00,40.4,27.0,29.94,East,101,2.0,5.0,59,0.00,,,0.00,weatherlink.com 1.10,2013-03-05 22:30:00,
2013-03-05 14:45:00,39.9,29.0,29.94,NE,46,3.0,4.0,64,0.00,,,0.00,weatherlink.com 1.10,2013-03-05 22:45:00,
2013-03-05 15:00:00,40.0,27.0,29.94,ENE,66,1.0,6.0,59,0.00,,,0.00,weatherlink.com 1.10,2013-03-05 23:00:00,
2013-03-05 15:15:00,39.1,27.0,29.94,NE,47,3.0,7.0,62,0.00,,,0.00,weatherlink.com 1.10,2013-03-05 23:15:00,
2013-03-05 15:30:00,39.1,27.0,29.93,ENE,67,6.0,8.0,62,0.00,,,0.00,weatherlink.com 1.10,2013-03-05 23:30:00,
2013-03-05 15:45:00,39.7,27.0,29.93,NE,55,2.0,8.0,60,0.00,,,0.00,weatherlink.com 1.10,2013-03-05 23:45:00,
2013-03-05 16:00:00,39.7,27.0,29.93,NE,46,6.0,6.0,61,0.00,,,0.00,weatherlink.com 1.10,2013-03-06 00:00:00,
2013-03-05 16:15:00,37.8,27.0,29.92,NE,45,5.0,7.0,65,0.00,,,0.00,weatherlink.com 1.10,2013-03-06 00:15:00,
2013-03-05 16:30:00,38.6,27.0,29.92,NE,50,2.0,6.0,63,0.00,,,0.00,weatherlink.com 1.10,2013-03-06 00:30:00,
2013-03-05 16:45:00,39.2,26.0,29.92,NE,51,7.0,8.0,60,0.00,,,0.00,weatherlink.com 1.10,2013-03-06 00:45:00,
2013-03-05 17:00:00,40.2,25.0,29.91,East,82,2.0,7.0,55,0.00,,,0.00,weatherlink.com 1.10,2013-03-06 01:00:00,
2013-03-05 17:16:00,39.4,26.0,29.91,NNE,29,2.0,6.0,59,0.00,,,0.00,weatherlink.com 1.10,2013-03-06 01:16:00,
2013-03-05 17:31:00,38.3,26.0,29.91,NE,41,4.0,6.0,62,0.00,,,0.00,weatherlink.com 1.10,2013-03-06 01:31:00,
2013-03-05 17:46:00,39.0,26.0,29.92,NE,42,2.0,6.0,61,0.00,,,0.00,weatherlink.com 1.10,2013-03-06 01:46:00,
2013-03-05 18:01:00,37.7,27.0,29.91,NE,46,3.0,5.0,65,0.00,,,0.00,weatherlink.com 1.10,2013-03-06 02:01:00,
2013-03-05 18:16:00,37.3,27.0,29.91,NE,53,6.0,6.0,67,0.00,,,0.00,weatherlink.com 1.10,2013-03-06 02:16:00,
2013-03-05 18:31:00,37.4,27.0,29.91,ENE,60,4.0,6.0,67,0.00,,,0.00,weatherlink.com 1.10,2013-03-06 02:31:00,
2013-03-05 18:46:00,37.2,27.0,29.91,NE,47,6.0,6.0,66,0.00,,,0.00,weatherlink.com 1.10,2013-03-06 02:46:00,
2013-03-05 19:01:00,36.8,27.0,29.91,NE,46,4.0,5.0,68,0.00,,,0.00,weatherlink.com 1.10,2013-03-06 03:01:00,
2013-03-05 19:16:00,36.8,27.0,29.91,NE,47,3.0,4.0,69,0.00,,,0.00,weatherlink.com 1.10,2013-03-06 03:16:00,
2013-03-05 19:31:00,37.7,27.0,29.91,ENE,69,4.0,6.0,66,0.00,,,0.00,weatherlink.com 1.10,2013-03-06 03:31:00,
2013-03-05 19:46:00,37.4,27.0,29.91,NE,55,2.0,4.0,67,0.00,,,0.00,weatherlink.com 1.10,2013-03-06 03:46:00,
2013-03-05 20:01:00,37.1,28.0,29.90,NE,45,4.0,5.0,69,0.00,,,0.00,weatherlink.com 1.10,2013-03-06 04:01:00,
2013-03-05 20:16:00,37.2,28.0,29.90,NE,46,0.0,4.0,69,0.00,,,0.00,weatherlink.com 1.10,2013-03-06 04:16:00,
2013-03-05 20:31:00,37.2,27.0,29.90,ENE,65,2.0,4.0,67,0.00,,,0.00,weatherlink.com 1.10,2013-03-06 04:31:00,
2013-03-05 20:46:00,39.3,27.0,29.90,NNE,29,6.0,9.0,61,0.00,,,0.00,weatherlink.com 1.10,2013-03-06 04:46:00,
2013-03-05 21:01:00,38.7,27.0,29.89,NNE,30,6.0,7.0,63,0.00,,,0.00,weatherlink.com 1.10,2013-03-06 05:01:00,
2013-03-05 21:19:00,39.2,27.0,29.89,ENE,75,4.0,8.0,62,0.00,,,0.00,weatherlink.com 1.10,2013-03-06 05:19:00,
2013-03-05 21:31:00,38.7,27.0,29.88,NE,45,6.0,9.0,64,0.00,,,0.00,weatherlink.com 1.10,2013-03-06 05:31:00,
2013-03-05 21:46:00,39.5,28.0,29.88,ENE,57,2.0,8.0,63,0.00,,,0.00,weatherlink.com 1.10,2013-03-06 05:46:00,
2013-03-05 22:01:00,38.3,28.0,29.88,NE,41,3.0,6.0,66,0.00,,,0.00,weatherlink.com 1.10,2013-03-06 06:01:00,
2013-03-05 22:16:00,37.4,27.0,29.88,East,82,0.0,7.0,67,0.00,,,0.00,weatherlink.com 1.10,2013-03-06 06:16:00,
2013-03-05 22:31:00,36.6,28.0,29.87,ENE,57,10.0,10.0,70,0.00,,,0.00,weatherlink.com 1.10,2013-03-06 06:31:00,
2013-03-05 22:46:00,39.9,27.0,29.86,North,1,9.0,13.0,60,0.00,,,0.00,weatherlink.com 1.10,2013-03-06 06:46:00,
2013-03-05 23:01:00,41.6,28.0,29.85,NNE,29,5.0,9.0,60,0.00,,,0.00,weatherlink.com 1.10,2013-03-06 07:01:00,
2013-03-05 23:16:00,39.5,29.0,29.85,ENE,63,4.0,6.0,66,0.00,,,0.00,weatherlink.com 1.10,2013-03-06 07:16:00,
2013-03-05 23:31:00,38.6,28.0,29.85,East,80,6.0,9.0,65,0.00,,,0.00,weatherlink.com 1.10,2013-03-06 07:31:00,
2013-03-05 23:46:00,37.2,28.0,29.83,ENE,58,7.0,8.0,69,0.00,,,0.00,weatherlink.com 1.10,2013-03-06 07:46:00,